Time;durP1;ratioP1;P1;durP2;ratioP2;P2;SDS_P1;SDS_P2;PMS_P1;PMS_P2;Temp;Humidity;BMP_temperature;BMP_pressure;BME280_temperature;BME280_humidity;BME280_pressure;Samples;Min_cycle;Max_cycle;Signal;HPM_P1;HPM_P2
2023/10/12 00:01:38;;;;;;;19.65;11.50;;;;;;;16.71;95.82;101110.53;5048529;28;20052;-86
2023/10/12 00:04:06;;;;;;;18.20;12.40;;;;;;;16.69;96.62;101115.97;5045575;28;20032;-85
2023/10/12 00:06:37;;;;;;;20.02;13.20;;;;;;;16.69;97.51;101113.31;5048565;28;20052;-81
2023/10/12 00:09:16;;;;;;;21.55;13.52;;;;;;;16.69;98.56;101129.25;5048759;28;20338;-81
2023/10/12 00:11:46;;;;;;;22.23;13.50;;;;;;;16.68;99.23;101122.28;5047518;28;20028;-81
2023/10/12 00:14:14;;;;;;;21.33;13.50;;;;;;;16.67;100.00;101141.03;5062525;28;20055;-81
2023/10/12 00:16:42;;;;;;;22.23;14.23;;;;;;;16.66;100.00;101134.88;5060320;28;20498;-81
2023/10/12 00:19:11;;;;;;;26.17;14.85;;;;;;;16.64;100.00;101126.19;5028932;28;20432;-81
2023/10/12 00:21:37;;;;;;;21.88;13.73;;;;;;;16.61;100.00;101123.81;5027815;28;20049;-81
2023/10/12 00:24:02;;;;;;;19.90;14.18;;;;;;;16.63;100.00;101135.13;5032947;28;20629;-81
2023/10/12 00:26:31;;;;;;;22.55;14.82;;;;;;;16.62;100.00;101144.09;5045657;28;20032;-82
2023/10/12 00:28:57;;;;;;;21.80;15.13;;;;;;;16.62;100.00;101138.78;5046599;28;20017;-82
2023/10/12 00:31:22;;;;;;;23.98;15.75;;;;;;;16.58;100.00;101140.88;5047970;28;20108;-82
2023/10/12 00:33:48;;;;;;;26.55;16.05;;;;;;;16.59;100.00;101149.69;5047754;28;20033;-82
2023/10/12 00:36:21;;;;;;;23.85;16.10;;;;;;;16.56;100.00;101150.00;5052551;28;20074;-83
2023/10/12 00:38:47;;;;;;;25.00;15.63;;;;;;;16.56;100.00;101150.00;5066060;28;20021;-83
2023/10/12 00:41:17;;;;;;;21.45;17.23;;;;;;;16.53;100.00;101155.59;5052730;28;20565;-87
2023/10/12 00:44:08;;;;;;;28.27;16.83;;;;;;;16.52;100.00;101169.84;5051349;28;20390;-87
2023/10/12 00:49:22;;;;;;;28.70;18.63;;;;;;;16.47;100.00;101177.41;5052914;28;20115;-84
2023/10/12 00:51:52;;;;;;;27.35;17.40;;;;;;;16.44;100.00;101177.72;5052032;28;20478;-84
2023/10/12 00:54:32;;;;;;;22.70;17.25;;;;;;;16.42;100.00;101174.34;5052425;28;20103;-84
2023/10/12 00:57:02;;;;;;;31.70;18.55;;;;;;;16.39;100.00;101177.28;5049941;28;20509;-84
2023/10/12 00:59:32;;;;;;;27.27;19.05;;;;;;;16.35;100.00;101179.38;5032285;28;20017;-84
2023/10/12 01:02:00;;;;;;;32.75;19.95;;;;;;;16.32;100.00;101184.13;5032868;28;20021;-83
2023/10/12 01:04:27;;;;;;;30.52;19.40;;;;;;;16.29;100.00;101174.63;5044291;28;20048;-83
2023/10/12 01:06:59;;;;;;;28.00;19.27;;;;;;;16.28;100.00;101159.69;5051309;28;20025;-83
2023/10/12 01:09:26;;;;;;;36.22;20.30;;;;;;;16.26;100.00;101173.09;5053113;28;20106;-83
2023/10/12 01:12:00;;;;;;;30.67;20.65;;;;;;;16.23;100.00;101178.72;5051226;28;20117;-83
2023/10/12 01:14:27;;;;;;;36.60;21.52;;;;;;;16.18;100.00;101178.28;5045962;28;20116;-83
2023/10/12 01:16:58;;;;;;;32.65;21.30;;;;;;;16.14;100.00;101179.56;5056130;28;20036;-82
2023/10/12 01:19:31;;;;;;;30.75;21.60;;;;;;;16.13;100.00;101185.84;5050960;28;20402;-84
2023/10/12 01:22:08;;;;;;;;;;;;;;;16.22;100.00;101174.38;5038605;28;20024;-85
2023/10/12 01:24:37;;;;;;;31.60;21.83;;;;;;;16.11;100.00;101171.03;5047135;28;19913;-83
2023/10/12 01:27:07;;;;;;;34.30;22.92;;;;;;;16.09;100.00;101176.50;5049400;28;20484;-82
2023/10/12 01:29:35;;;;;;;31.95;22.75;;;;;;;16.07;100.00;101173.16;5050745;28;20047;-83
2023/10/12 01:32:21;;;;;;;37.28;23.00;;;;;;;16.05;100.00;101174.28;5049619;28;20036;-84
2023/10/12 01:34:53;;;;;;;36.28;23.30;;;;;;;16.02;100.00;101162.13;5048763;28;20021;-84
2023/10/12 01:37:23;;;;;;;35.67;23.73;;;;;;;16.03;100.00;101149.69;5049946;28;20114;-83
2023/10/12 01:45:18;;;;;;;37.72;24.88;;;;;;;15.98;100.00;101142.13;5047855;28;20443;-83
2023/10/12 01:48:07;;;;;;;34.35;24.05;;;;;;;15.94;100.00;101144.22;5050648;28;20024;-80
2023/10/12 01:50:33;;;;;;;32.67;23.60;;;;;;;15.94;100.00;101138.06;5070376;28;20029;-84
2023/10/12 01:53:00;;;;;;;35.22;23.98;;;;;;;15.92;100.00;101145.34;5061147;28;20025;-84
2023/10/12 01:55:30;;;;;;;32.10;22.75;;;;;;;15.91;100.00;101143.66;5051727;28;20402;-83
2023/10/12 01:57:56;;;;;;;32.40;24.27;;;;;;;15.87;100.00;101147.56;5050648;28;20398;-84
2023/10/12 02:00:25;;;;;;;37.90;24.73;;;;;;;15.86;100.00;101151.22;5032352;28;20110;-85
2023/10/12 02:03:00;;;;;;;35.63;24.60;;;;;;;15.79;100.00;101137.66;5050014;28;20021;-85
2023/10/12 02:05:29;;;;;;;36.28;25.23;;;;;;;15.78;100.00;101133.34;5047507;28;20029;-84
2023/10/12 02:07:55;;;;;;;35.10;25.02;;;;;;;15.75;100.00;101138.09;5049719;28;20268;-84
2023/10/12 02:10:25;;;;;;;34.50;25.60;;;;;;;15.71;100.00;101142.00;5049380;28;20111;-84
2023/10/12 02:12:54;;;;;;;37.70;26.00;;;;;;;15.65;100.00;101146.91;5051177;28;20029;-84
2023/10/12 02:15:21;;;;;;;35.25;25.42;;;;;;;15.63;100.00;101146.19;5051241;28;20024;-84
2023/10/12 02:17:50;;;;;;;36.13;25.20;;;;;;;15.62;100.00;101155.13;5044361;28;20111;-84
2023/10/12 02:20:18;;;;;;;34.47;25.92;;;;;;;15.58;100.00;101147.56;5051485;28;20032;-85
2023/10/12 02:22:44;;;;;;;37.33;26.80;;;;;;;15.56;100.00;101158.28;5050608;28;20105;-85
2023/10/12 02:25:18;;;;;;;33.15;26.30;;;;;;;15.51;100.00;101146.41;5047327;28;20418;-85
2023/10/12 02:27:54;;;;;;;37.50;27.38;;;;;;;15.49;100.00;101132.44;5045844;28;20088;-85
2023/10/12 02:30:22;;;;;;;32.97;26.10;;;;;;;15.49;100.00;101141.25;5047466;28;20482;-85
2023/10/12 02:33:00;;;;;;;36.35;27.67;;;;;;;15.43;100.00;101106.50;5037654;28;20492;-85
2023/10/12 02:35:25;;;;;;;37.85;27.35;;;;;;;15.43;100.00;101101.19;5042606;28;20535;-85
2023/10/12 02:37:50;;;;;;;37.78;27.17;;;;;;;15.43;100.00;101102.03;5042915;28;20036;-84
2023/10/12 02:40:16;;;;;;;35.70;27.60;;;;;;;15.41;100.00;101097.84;5050083;28;20032;-85
2023/10/12 02:42:43;;;;;;;36.05;26.52;;;;;;;15.39;100.00;101115.69;5048286;28;20056;-85
2023/10/12 02:47:41;;;;;;;34.90;25.92;;;;;;;15.35;100.00;101115.13;5049106;28;20025;-85
2023/10/12 02:50:21;;;;;;;30.92;25.30;;;;;;;15.36;100.00;101116.81;5048096;28;20474;-87
2023/10/12 02:52:47;;;;;;;34.17;26.17;;;;;;;15.35;100.00;101110.69;5066394;28;20036;-84
2023/10/12 02:57:56;;;;;;;33.75;25.30;;;;;;;15.32;100.00;101096.84;5049960;28;20037;-86
2023/10/12 03:03:23;;;;;;;32.78;25.38;;;;;;;15.29;100.00;101095.31;5054316;28;20037;-86
2023/10/12 03:05:51;;;;;;;33.85;25.33;;;;;;;15.31;100.00;101100.47;5047975;28;20025;-86
2023/10/12 03:08:17;;;;;;;31.35;25.00;;;;;;;15.29;100.00;101103.28;5040502;28;20026;-85
2023/10/12 03:13:35;;;;;;;33.40;25.05;;;;;;;15.24;100.00;101100.19;5045228;28;20105;-84
2023/10/12 03:16:41;;;;;;;35.20;25.08;;;;;;;15.25;100.00;101103.69;5037246;28;20025;-82
2023/10/12 03:19:00;;;;;;;33.33;24.88;;;;;;;15.23;100.00;101092.38;5047790;28;20566;-87
2023/10/12 03:21:33;;;;;;;35.47;24.45;;;;;;;15.20;100.00;101104.06;5049355;28;20390;-87
2023/10/12 03:24:03;;;;;;;32.75;25.15;;;;;;;15.17;100.00;101090.25;5032913;28;20476;-87
2023/10/12 03:26:29;;;;;;;33.08;24.02;;;;;;;15.20;100.00;101103.22;5044074;28;20041;-87
2023/10/12 03:31:53;;;;;;;31.33;23.27;;;;;;;15.16;100.00;101092.06;5047850;28;20037;-85
2023/10/12 03:34:53;;;;;;;32.08;23.40;;;;;;;15.15;100.00;101097.50;5046417;28;20291;-86
2023/10/12 03:37:40;;;;;;;30.60;23.08;;;;;;;15.15;100.00;101097.50;5048039;28;20029;-85
2023/10/12 03:40:23;;;;;;;29.92;22.38;;;;;;;15.14;100.00;101085.22;5047612;28;20040;-85
2023/10/12 03:42:52;;;;;;;31.65;22.38;;;;;;;15.11;100.00;101104.06;5036305;28;20033;-86
2023/10/12 03:45:39;;;;;;;26.42;21.80;;;;;;;15.11;100.00;101106.72;5046203;28;20067;-86
2023/10/12 03:53:26;;;;;;;27.70;20.63;;;;;;;15.05;100.00;101111.59;5049069;28;20029;-88
2023/10/12 03:55:57;;;;;;;26.58;21.17;;;;;;;15.05;100.00;101116.88;5047691;28;20103;-86
2023/10/12 03:58:24;;;;;;;27.38;20.67;;;;;;;15.00;100.00;101111.16;5049253;28;20029;-86
2023/10/12 04:01:06;;;;;;;28.65;20.38;;;;;;;15.02;100.00;101113.66;5047509;28;20394;-86
2023/10/12 04:03:39;;;;;;;29.10;21.02;;;;;;;14.98;100.00;101136.97;5061847;28;20050;-85
2023/10/12 04:06:15;;;;;;;28.67;20.48;;;;;;;15.00;100.00;101135.00;5046868;28;20057;-85
2023/10/12 04:08:51;;;;;;;25.30;21.13;;;;;;;14.96;100.00;101136.25;5046913;28;20099;-84
2023/10/12 04:11:46;;;;;;;28.60;21.02;;;;;;;14.98;100.00;101131.66;5047159;28;20106;-85
2023/10/12 04:14:22;;;;;;;26.55;21.38;;;;;;;14.98;100.00;101142.25;5053014;28;20103;-82
2023/10/12 04:16:57;;;;;;;28.17;22.27;;;;;;;14.97;100.00;101137.94;5062910;28;20363;-86
2023/10/12 04:19:44;;;;;;;29.15;21.48;;;;;;;14.97;100.00;101143.22;5073921;28;20393;-81
2023/10/12 04:22:16;;;;;;;30.65;21.27;;;;;;;14.98;100.00;101133.47;5074234;28;20104;-86
2023/10/12 04:24:48;;;;;;;31.00;22.70;;;;;;;14.98;100.00;101133.47;5072508;28;20077;-86
2023/10/12 04:29:51;;;;;;;28.20;22.48;;;;;;;14.95;100.00;101141.69;5054165;28;20033;-86
2023/10/12 04:32:35;;;;;;;34.00;22.58;;;;;;;14.94;100.00;101135.56;5036906;28;20033;-87
2023/10/12 04:35:08;;;;;;;28.33;22.77;;;;;;;14.95;100.00;101139.88;5033993;28;20414;-86
2023/10/12 04:37:38;;;;;;;27.73;22.63;;;;;;;14.95;100.00;101134.56;5033047;28;20029;-87
2023/10/12 04:40:17;;;;;;;31.65;23.10;;;;;;;14.94;100.00;101129.41;5045224;28;20021;-87
2023/10/12 04:42:45;;;;;;;28.13;22.02;;;;;;;14.97;100.00;101137.09;5051871;28;20032;-88
2023/10/12 04:45:23;;;;;;;28.08;22.52;;;;;;;14.94;100.00;101134.72;5066138;28;20043;-88
2023/10/12 04:47:55;;;;;;;26.67;21.25;;;;;;;14.95;100.00;101152.28;5066372;28;20436;-86
2023/10/12 04:53:08;;;;;;;29.38;21.27;;;;;;;14.96;100.00;101152.16;5048866;28;20040;-85
2023/10/12 04:55:40;;;;;;;35.10;21.90;;;;;;;14.96;100.00;101140.72;5050167;28;20033;-87
2023/10/12 04:58:30;;;;;;;27.42;21.27;;;;;;;14.95;100.00;101145.19;5067919;28;20538;-84
2023/10/12 05:01:12;;;;;;;26.13;21.08;;;;;;;14.96;100.00;101152.16;5051363;28;20025;-86
2023/10/12 05:03:39;;;;;;;25.27;20.92;;;;;;;14.98;100.00;101150.19;5052010;28;20049;-85
2023/10/12 05:06:16;;;;;;;29.52;21.13;;;;;;;14.97;100.00;101155.63;5050270;28;20017;-85
2023/10/12 05:08:41;;;;;;;25.25;20.67;;;;;;;14.98;100.00;101171.41;5049950;28;20025;-85
2023/10/12 05:11:09;;;;;;;24.52;20.30;;;;;;;14.95;100.00;101176.97;5051703;28;20073;-85
2023/10/12 05:13:43;;;;;;;26.52;19.88;;;;;;;14.96;100.00;101188.41;5051493;28;20040;-85
2023/10/12 05:16:08;;;;;;;28.20;21.65;;;;;;;14.97;100.00;101185.63;5036857;28;20028;-84
2023/10/12 05:18:37;;;;;;;27.17;20.40;;;;;;;14.94;100.00;101191.19;5047046;28;20028;-84
2023/10/12 05:21:05;;;;;;;27.48;20.50;;;;;;;14.95;100.00;101192.88;5049641;28;20028;-85
2023/10/12 05:23:30;;;;;;;28.42;20.30;;;;;;;14.96;100.00;101188.41;5050514;28;20028;-85
2023/10/12 05:28:35;;;;;;;25.50;19.85;;;;;;;14.94;100.00;101183.25;5049459;28;20218;-85
2023/10/12 05:31:09;;;;;;;25.85;19.98;;;;;;;14.93;100.00;101175.44;5050042;28;20119;-85
2023/10/12 05:36:12;;;;;;;28.55;19.80;;;;;;;14.94;100.00;101196.50;5051681;28;20036;-86
2023/10/12 05:38:59;;;;;;;25.55;18.52;;;;;;;14.94;100.00;101193.84;5065591;28;20091;-85
2023/10/12 05:43:56;;;;;;;26.17;18.92;;;;;;;14.94;100.00;101185.91;5049645;28;20029;-85
2023/10/12 05:46:22;;;;;;;24.90;18.20;;;;;;;14.94;100.00;101195.66;5051567;28;20088;-85
2023/10/12 05:48:52;;;;;;;26.00;19.02;;;;;;;14.95;100.00;101187.56;5064000;28;20037;-84
2023/10/12 05:51:24;;;;;;;24.08;18.50;;;;;;;14.94;100.00;101200.97;5051102;28;20079;-84
2023/10/12 05:53:56;;;;;;;26.33;18.20;;;;;;;14.94;100.00;101212.41;5067739;28;20390;-85
2023/10/12 05:56:23;;;;;;;24.20;18.55;;;;;;;14.94;100.00;101216.84;5066791;28;20025;-85
2023/10/12 05:58:48;;;;;;;22.90;17.77;;;;;;;14.94;100.00;101211.56;5062087;28;20039;-85
2023/10/12 06:01:31;;;;;;;26.63;18.58;;;;;;;14.94;100.00;101217.69;5045922;28;20025;-84
2023/10/12 06:03:58;;;;;;;28.52;18.38;;;;;;;14.94;100.00;101212.41;5037504;28;20036;-85
2023/10/12 06:06:23;;;;;;;26.58;18.02;;;;;;;14.93;100.00;101221.31;5060123;28;20038;-84
2023/10/12 06:08:50;;;;;;;22.83;17.30;;;;;;;14.95;100.00;101216.72;5049235;28;20397;-86
2023/10/12 06:11:18;;;;;;;23.95;17.70;;;;;;;14.93;100.00;101212.53;5050483;28;20025;-84
2023/10/12 06:13:44;;;;;;;25.88;17.67;;;;;;;14.94;100.00;101223.00;5058211;28;20474;-81
2023/10/12 06:16:15;;;;;;;26.00;18.30;;;;;;;14.91;100.00;101225.91;5052664;28;20024;-83
2023/10/12 06:18:48;;;;;;;27.50;17.95;;;;;;;14.90;100.00;101221.59;5070925;28;20497;-83
2023/10/12 06:21:20;;;;;;;24.08;18.55;;;;;;;14.91;100.00;101220.59;5071393;28;20029;-84
2023/10/12 06:23:49;;;;;;;29.40;16.48;;;;;;;14.90;100.00;101231.34;5059004;28;20025;-83
2023/10/12 06:26:30;;;;;;;25.10;17.85;;;;;;;14.88;100.00;101234.13;5037259;28;20022;-84
2023/10/12 06:28:57;;;;;;;21.63;17.58;;;;;;;14.88;100.00;101233.28;5044533;28;20020;-84
2023/10/12 06:31:22;;;;;;;25.35;18.15;;;;;;;14.88;100.00;101238.59;5057368;28;20033;-83
2023/10/12 06:33:49;;;;;;;25.73;17.67;;;;;;;14.86;100.00;101233.41;5051036;28;20028;-85
2023/10/12 06:36:22;;;;;;;23.67;18.27;;;;;;;14.88;100.00;101231.47;5048217;28;20021;-87
2023/10/12 06:39:02;;;;;;;28.25;18.05;;;;;;;14.83;100.00;101232.84;5038782;28;20033;-85
2023/10/12 06:41:58;;;;;;;26.13;17.58;;;;;;;14.84;100.00;101235.34;5065650;28;20052;-86
2023/10/12 06:44:26;;;;;;;26.77;18.73;;;;;;;14.83;100.00;101236.31;5038524;28;20036;-86
2023/10/12 06:47:02;;;;;;;25.90;18.52;;;;;;;14.84;100.00;101232.72;5045976;28;20040;-85
2023/10/12 06:49:32;;;;;;;25.13;17.85;;;;;;;14.85;100.00;101228.25;5049190;28;20029;-86
2023/10/12 06:52:00;;;;;;;25.25;18.33;;;;;;;14.83;100.00;101236.31;5063228;28;20048;-87
2023/10/12 07:02:27;;;;;;;24.25;18.33;;;;;;;14.82;100.00;101252.34;5047937;28;20385;-87
2023/10/12 07:04:58;;;;;;;27.58;18.88;;;;;;;14.81;100.00;101259.47;5063783;28;20037;-85
2023/10/12 07:07:41;;;;;;;27.52;18.85;;;;;;;14.82;100.00;101265.59;5048916;28;20082;-86
2023/10/12 07:12:45;;;;;;;26.65;18.10;;;;;;;14.79;100.00;101253.44;5048965;28;20033;-85
2023/10/12 07:15:12;;;;;;;26.17;18.80;;;;;;;14.81;100.00;101261.25;5037596;28;21000;-86
2023/10/12 07:17:43;;;;;;;25.63;18.20;;;;;;;14.82;100.00;101266.44;5048815;28;20397;-85
2023/10/12 07:20:25;;;;;;;22.20;17.80;;;;;;;14.84;100.00;101263.66;5050598;28;20035;-85
2023/10/12 07:22:51;;;;;;;24.83;18.45;;;;;;;14.82;100.00;101269.09;5048199;28;20036;-84
2023/10/12 07:25:22;;;;;;;27.05;18.80;;;;;;;14.83;100.00;101273.41;5050534;28;20029;-84
2023/10/12 07:27:59;;;;;;;27.80;18.88;;;;;;;14.84;100.00;101280.41;5048536;28;20395;-84
2023/10/12 07:30:33;;;;;;;30.35;18.50;;;;;;;14.84;100.00;101280.41;5046587;28;20329;-84
2023/10/12 07:33:07;;;;;;;26.05;18.58;;;;;;;14.86;100.00;101282.91;5049538;28;20389;-84
2023/10/12 07:35:36;;;;;;;27.17;18.70;;;;;;;14.87;100.00;101289.91;5050738;28;20086;-84
2023/10/12 07:38:13;;;;;;;25.10;17.13;;;;;;;14.89;100.00;101283.50;5049201;28;20063;-85
2023/10/12 07:43:20;;;;;;;28.10;19.25;;;;;;;14.95;100.00;101282.97;5051420;28;20045;-85
2023/10/12 07:45:49;;;;;;;27.63;18.13;;;;;;;14.96;100.00;101289.94;5049234;28;20060;-86
2023/10/12 07:48:39;;;;;;;23.48;18.45;;;;;;;14.96;100.00;101284.66;5047162;28;20033;-85
2023/10/12 07:51:15;;;;;;;25.70;17.88;;;;;;;14.97;100.00;101281.03;5051331;28;20064;-84
2023/10/12 07:53:51;;;;;;;28.52;18.17;;;;;;;14.99;100.00;101286.19;5048324;28;20029;-85
2023/10/12 07:56:17;;;;;;;26.42;18.20;;;;;;;15.02;100.00;101284.13;5048070;28;20171;-85
2023/10/12 07:58:57;;;;;;;23.88;18.30;;;;;;;15.03;100.00;101283.16;5045257;28;20116;-85
2023/10/12 08:03:53;;;;;;;25.48;17.70;;;;;;;15.09;100.00;101289.72;5046669;28;20029;-85
2023/10/12 08:06:29;;;;;;;23.05;17.33;;;;;;;15.10;100.00;101279.97;5047087;28;20025;-86
2023/10/12 08:09:03;;;;;;;25.50;17.83;;;;;;;15.13;100.00;101275.22;5046003;28;20045;-85
2023/10/12 08:11:31;;;;;;;26.50;16.98;;;;;;;15.14;100.00;101282.22;5045431;28;20108;-86
2023/10/12 08:14:09;;;;;;;24.27;17.05;;;;;;;15.16;100.00;101279.44;5059620;28;20450;-85
2023/10/12 08:16:40;;;;;;;25.10;17.10;;;;;;;15.19;100.00;101280.00;5067969;28;20028;-84
2023/10/12 08:21:32;;;;;;;25.10;17.23;;;;;;;15.30;100.00;101281.75;5029318;28;20498;-84
2023/10/12 08:37:27;;;;;;;25.20;17.17;;;;;;;15.74;100.00;101290.31;5049443;28;20045;-84
2023/10/12 08:42:37;;;;;;;26.13;17.88;;;;;;;15.91;100.00;101282.50;5048971;28;20504;-84
2023/10/12 08:45:09;;;;;;;20.30;17.00;;;;;;;15.97;100.00;101286.41;5063809;28;20029;-85
2023/10/12 08:50:08;;;;;;;24.55;15.60;;;;;;;16.07;100.00;101297.91;5045815;28;20028;-85
2023/10/12 08:52:39;;;;;;;22.45;15.90;;;;;;;16.12;100.00;101303.63;5048579;28;20390;-85
2023/10/12 08:55:13;;;;;;;23.33;16.60;;;;;;;16.16;100.00;101307.69;5045753;28;20107;-85
2023/10/12 08:57:51;;;;;;;23.33;15.77;;;;;;;16.23;100.00;101315.94;5052245;28;20037;-84
2023/10/12 09:03:00;;;;;;;19.88;15.75;;;;;;;16.27;100.00;101314.69;5052021;28;20037;-84
2023/10/12 09:05:30;;;;;;;21.23;14.82;;;;;;;16.29;100.00;101310.91;5041922;28;20215;-85
2023/10/12 09:10:49;;;;;;;;;;;;;;;16.40;100.00;101319.72;5051416;28;20044;-85
2023/10/12 09:13:18;;;;;;;17.83;14.38;;;;;;;16.29;100.00;101308.25;5040531;28;20446;-85
2023/10/12 09:15:48;;;;;;;20.50;15.63;;;;;;;16.26;100.00;101315.66;5044197;28;20115;-85
2023/10/12 09:18:17;;;;;;;18.88;14.63;;;;;;;16.26;100.00;101319.16;5050432;28;20029;-84
2023/10/12 09:36:28;;;;;;;22.73;15.73;;;;;;;16.25;100.00;101309.50;5051183;28;20114;-85
2023/10/12 09:38:56;;;;;;;22.42;15.45;;;;;;;16.23;100.00;101305.31;5052442;28;20036;-84
2023/10/12 09:41:33;;;;;;;20.50;15.13;;;;;;;16.24;100.00;101310.50;5067657;28;20171;-85
2023/10/12 09:44:04;;;;;;;19.55;15.00;;;;;;;16.24;100.00;101307.00;5066093;28;20024;-84
2023/10/12 09:46:32;;;;;;;20.98;15.77;;;;;;;16.24;100.00;101307.84;5051412;28;20179;-85
2023/10/12 09:49:06;;;;;;;23.38;15.13;;;;;;;16.24;100.00;101302.53;5050513;28;20386;-83
2023/10/12 09:51:45;;;;;;;27.88;16.30;;;;;;;16.25;100.00;101304.19;5050641;28;20029;-87
2023/10/12 09:54:18;;;;;;;19.98;14.88;;;;;;;16.24;100.00;101305.19;5032201;28;20085;-89
2023/10/12 09:56:57;;;;;;;19.95;15.40;;;;;;;16.26;100.00;101303.22;5031773;28;20038;-88
2023/10/12 09:59:22;;;;;;;17.20;14.50;;;;;;;16.26;100.00;101291.75;5032612;28;20030;-85
2023/10/12 10:01:49;;;;;;;22.00;15.30;;;;;;;16.22;100.00;101291.22;5059739;28;20040;-85
2023/10/12 10:07:35;;;;;;;24.80;15.65;;;;;;;16.25;100.00;101306.84;5051169;28;20332;-85
2023/10/12 10:09:54;;;;;;;18.55;14.75;;;;;;;16.28;100.00;101301.25;5045761;28;20033;-84
2023/10/12 10:12:24;;;;;;;19.67;14.73;;;;;;;16.30;100.00;101296.66;5051619;28;20116;-85
2023/10/12 10:15:13;;;;;;;21.20;15.35;;;;;;;16.30;100.00;101298.47;5051546;28;20036;-85
2023/10/12 10:17:47;;;;;;;21.08;15.32;;;;;;;16.30;100.00;101288.69;5045315;28;20116;-85
2023/10/12 10:22:57;;;;;;;21.05;14.98;;;;;;;16.33;100.00;101276.09;5051783;28;20448;-84
2023/10/12 10:25:33;;;;;;;21.67;15.23;;;;;;;16.39;100.00;101275.53;5053031;28;20449;-85
2023/10/12 10:28:06;;;;;;;25.58;15.40;;;;;;;16.49;100.00;101271.09;5052455;28;20478;-86
2023/10/12 10:30:40;;;;;;;19.42;14.65;;;;;;;16.50;100.00;101272.75;5052061;28;20035;-84
2023/10/12 10:33:13;;;;;;;19.92;15.27;;;;;;;16.57;100.00;101273.88;5050407;28;20035;-85
2023/10/12 10:36:24;;;;;;;21.02;14.43;;;;;;;16.72;100.00;101272.47;5051125;28;20094;-85
2023/10/12 10:44:16;;;;;;;21.20;14.82;;;;;;;16.87;100.00;101265.72;5035813;28;20164;-85
2023/10/12 10:46:54;;;;;;;17.67;13.50;;;;;;;17.01;100.00;101266.25;5031780;28;20045;-85
2023/10/12 10:49:20;;;;;;;21.40;13.98;;;;;;;17.01;100.00;101260.94;5039398;28;20396;-85
2023/10/12 10:51:48;;;;;;;20.67;14.20;;;;;;;17.06;100.00;101264.00;5031297;28;20505;-85
2023/10/12 10:54:21;;;;;;;19.38;13.85;;;;;;;17.08;100.00;101256.69;5049860;28;20506;-84
2023/10/12 10:56:49;;;;;;;20.30;13.60;;;;;;;17.18;100.00;101261.00;5070434;28;20048;-86
2023/10/12 10:59:18;;;;;;;20.67;13.32;;;;;;;17.18;100.00;101262.81;5071471;28;20029;-85
2023/10/12 11:01:49;;;;;;;19.30;13.43;;;;;;;17.21;100.00;101266.06;5071102;28;20047;-85
2023/10/12 11:07:06;;;;;;;21.13;13.80;;;;;;;17.16;100.00;101262.13;5072695;28;20032;-85
2023/10/12 11:09:54;;;;;;;18.58;13.80;;;;;;;17.25;100.00;101252.47;5073912;28;20029;-85
2023/10/12 11:12:31;;;;;;;19.27;13.70;;;;;;;17.33;100.00;101250.72;5071796;28;20380;-85
2023/10/12 11:15:01;;;;;;;17.98;13.13;;;;;;;17.38;100.00;101243.16;5068680;28;20028;-86
2023/10/12 11:17:35;;;;;;;21.00;13.63;;;;;;;17.36;100.00;101246.94;5073049;28;20057;-85
2023/10/12 11:20:26;;;;;;;20.30;13.70;;;;;;;17.32;100.00;101245.56;5070825;28;20040;-85
2023/10/12 11:22:51;;;;;;;21.10;13.90;;;;;;;17.34;100.00;101252.41;5080952;28;20021;-85
2023/10/12 11:25:18;;;;;;;20.45;12.90;;;;;;;17.35;100.00;101258.56;5053286;28;20036;-86
2023/10/12 11:27:44;;;;;;;20.50;13.35;;;;;;;17.31;100.00;101258.03;5050769;28;20418;-86
2023/10/12 11:30:19;;;;;;;22.80;13.70;;;;;;;17.24;100.00;101256.94;5050519;28;20043;-86
2023/10/12 11:32:53;;;;;;;18.05;12.82;;;;;;;17.27;100.00;101263.78;5058699;28;20069;-85
2023/10/12 11:35:40;;;;;;;15.38;12.20;;;;;;;17.22;100.00;101251.78;5060096;28;20051;-86
2023/10/12 11:38:17;;;;;;;18.25;11.40;;;;;;;17.15;100.00;101252.47;5054237;28;20021;-85
2023/10/12 11:40:44;;;;;;;15.63;10.82;;;;;;;17.06;100.00;101248.03;5050796;28;20519;-84
2023/10/12 11:43:10;;;;;;;16.35;11.50;;;;;;;17.03;100.00;101248.34;5062850;28;20970;-84
2023/10/12 11:45:55;;;;;;;17.77;10.98;;;;;;;17.09;100.00;101245.91;5042200;28;20081;-84
2023/10/12 11:48:22;;;;;;;18.00;10.88;;;;;;;17.05;100.00;101238.38;5046753;28;20031;-83
2023/10/12 11:50:49;;;;;;;15.93;10.25;;;;;;;17.04;100.00;101234.06;5051484;28;20053;-84
2023/10/12 11:53:15;;;;;;;14.57;9.68;;;;;;;17.11;100.00;101235.13;5040843;28;20538;-84
2023/10/12 11:55:41;;;;;;;14.93;10.80;;;;;;;17.15;100.00;101236.53;5046559;28;20112;-85
2023/10/12 11:58:13;;;;;;;14.63;10.25;;;;;;;17.20;100.00;101234.25;5048635;28;20081;-85
2023/10/12 12:00:44;;;;;;;15.25;10.05;;;;;;;17.24;100.00;101225.03;5049748;28;20048;-86
2023/10/12 12:03:10;;;;;;;16.70;9.57;;;;;;;17.25;100.00;101226.69;5051246;28;20044;-85
2023/10/12 12:05:36;;;;;;;13.07;9.65;;;;;;;17.20;100.00;101223.63;5050088;28;20024;-84
2023/10/12 12:08:15;;;;;;;16.23;9.82;;;;;;;17.21;100.00;101230.59;5049953;28;20520;-85
2023/10/12 12:10:45;;;;;;;14.68;9.60;;;;;;;17.21;100.00;101225.28;5049526;28;20442;-83
2023/10/12 12:13:12;;;;;;;17.00;9.60;;;;;;;17.10;100.00;101234.31;5048676;28;20017;-83
2023/10/12 12:15:43;;;;;;;15.73;9.43;;;;;;;17.12;100.00;101231.50;5047331;28;20441;-83
2023/10/12 12:18:16;;;;;;;13.55;9.73;;;;;;;17.09;100.00;101222.00;5049393;28;20057;-83
2023/10/12 12:20:44;;;;;;;17.02;9.70;;;;;;;17.03;100.00;101213.78;5048132;28;20024;-83
2023/10/12 12:23:10;;;;;;;18.58;9.98;;;;;;;17.02;100.00;101214.75;5045047;28;20025;-83
2023/10/12 12:25:39;;;;;;;13.82;9.73;;;;;;;16.98;100.00;101205.41;5043453;28;20033;-84
2023/10/12 12:28:07;;;;;;;16.80;9.95;;;;;;;16.95;100.00;101203.03;5040378;28;20453;-83
2023/10/12 12:30:39;;;;;;;14.02;9.57;;;;;;;16.91;100.00;101200.66;5052426;28;20029;-83
2023/10/12 12:33:08;;;;;;;14.25;10.60;;;;;;;16.90;100.00;101203.47;5054728;28;20025;-84
2023/10/12 12:35:38;;;;;;;17.02;10.30;;;;;;;16.89;100.00;101193.81;5053894;28;20079;-85
2023/10/12 12:38:14;;;;;;;14.55;10.18;;;;;;;16.86;100.00;101186.97;5055279;28;20025;-84
2023/10/12 12:40:40;;;;;;;15.55;10.40;;;;;;;16.83;100.00;101168.66;5053101;28;20033;-83
2023/10/12 12:43:09;;;;;;;17.95;10.93;;;;;;;16.76;100.00;101164.91;5053017;28;20013;-84
2023/10/12 12:45:38;;;;;;;16.17;10.80;;;;;;;16.75;100.00;101179.16;5047230;28;20053;-85
2023/10/12 12:48:04;;;;;;;16.05;11.10;;;;;;;16.74;100.00;101171.34;5053556;28;20044;-84
2023/10/12 12:50:30;;;;;;;16.67;10.70;;;;;;;16.72;100.00;101176.81;5051224;28;20052;-86
2023/10/12 12:52:57;;;;;;;21.80;11.40;;;;;;;16.69;100.00;101179.75;5046585;28;20482;-85
2023/10/12 12:55:25;;;;;;;17.30;11.88;;;;;;;16.67;100.00;101181.72;5040078;28;20071;-86
2023/10/12 12:57:50;;;;;;;16.60;11.30;;;;;;;16.68;100.00;101180.72;5050444;28;20091;-84
2023/10/12 13:00:21;;;;;;;18.92;12.00;;;;;;;16.68;100.00;101187.88;5052961;28;20020;-85
2023/10/12 13:02:47;;;;;;;20.13;12.63;;;;;;;16.63;100.00;101182.13;5050830;28;20433;-85
2023/10/12 13:05:14;;;;;;;20.02;12.32;;;;;;;16.63;100.00;101182.97;5049116;28;20456;-86
2023/10/12 13:07:46;;;;;;;19.27;11.55;;;;;;;16.60;100.00;101188.56;5047011;28;20031;-86
2023/10/12 13:10:12;;;;;;;19.00;12.43;;;;;;;16.57;100.00;101188.84;5048057;28;20055;-85
2023/10/12 13:12:42;;;;;;;17.17;11.77;;;;;;;16.55;100.00;101185.50;5051891;28;20025;-87
2023/10/12 13:15:09;;;;;;;21.77;12.73;;;;;;;16.54;100.00;101182.00;5064655;28;20021;-86